Nearby METAR Reports

 

KDLZ - Delaware, Ohio, USA
Distance from station: SW 3mi, 5km
Updated: Sun, 24-Jan-2021 12:12am EST
Partly cloudy
Partly cloudy
 Wind from SE
Wind: SE 3 mph , 6 km/h
Temperature: 23°F , -5°C
Dew Point: 18°F , -8°C
Humidity: 80%
Barometer: 30.32 inHg , 1026.8 hPa
Clouds: Partly cloudy
Visibility: 10 miles , 16 km
Cloud details: Partly cloudy 11000 ft
2021/01/24 05:12 KDLZ 240512Z AUTO 13003KT 10SM SCT110 M05/M08 A3032 RMK AO2
KOSU - Columbus/St Univ, Ohio, USA
Distance from station: S 16mi, 25km
Updated: Sat, 23-Jan-2021 11:53pm EST
Clear
Clear
 Wind from E
Wind: E 3 mph , 6 km/h
Temperature: 25°F , -4°C
Dew Point: 14°F , -10°C
Humidity: 63%
Barometer: 30.32 inHg , 1026.8 hPa
Clouds: Clear
Visibility: 10 miles , 16 km
2021/01/24 04:53 KOSU 240453Z AUTO 10003KT 10SM CLR M04/M10 A3032 RMK AO2 SLP279 T10391100 410061094
 
KMRT - Marysville, Ohio, USA
Distance from station: WSW 16mi, 26km
Updated: Sun, 24-Jan-2021 12:35am EST
Clear
Clear
 Wind from ESE
Wind: ESE 3 mph , 6 km/h
Temperature: 25°F , -4°C
Dew Point: 14°F , -10°C
Humidity: 63%
Barometer: 30.29 inHg , 1025.7 hPa
Clouds: Clear
Visibility: 10 miles , 16 km
2021/01/24 05:35 KMRT 240535Z AUTO 12003KT 10SM CLR M04/M10 A3029 RMK AO2 T10441096
KMNN - Marion, Ohio, USA
Distance from station: N 21mi, 34km
Updated: Sat, 23-Jan-2021 11:53pm EST
Overcast
Overcast
 Wind from SE
Wind: SE 5 mph , 7 km/h
Temperature: 23°F , -5°C
Wind Chill: 17°F , -8°C
Dew Point: 12°F , -11°C
Humidity: 63%
Barometer: 30.32 inHg , 1026.8 hPa
Clouds: Overcast
Visibility: 10 miles , 16 km
Cloud details: Overcast 10000 ft
2021/01/24 04:53 KMNN 240453Z AUTO 14004KT 10SM OVC100 M05/M11 A3032 RMK AO2 SLP284 T10501106 410221100
 
KCMH - Columbus, Ohio, USA
Distance from station: SSE 24mi, 38km
Updated: Sat, 23-Jan-2021 11:51pm EST
Mostly cloudy
Mostly cloudy
 Wind from E
Wind: E 5 mph , 7 km/h
Temperature: 25°F , -4°C
Wind Chill: 19°F , -7°C
Dew Point: 12°F , -11°C
Humidity: 59%
Barometer: 30.33 inHg , 1027.1 hPa
Clouds: Mostly cloudy
Visibility: 10 miles , 16 km
Cloud details: Mostly cloudy 13000 ft
2021/01/24 04:51 KCMH 240451Z 09004KT 10SM BKN130 M04/M11 A3033 RMK AO2 SLP281 T10391106 410061089
K4I3 - Mt Vernon/Knox, Ohio, USA
Distance from station: E 29mi, 46km
Updated: Sun, 24-Jan-2021 12:35am EST
Clear
Clear
 Wind from calm
Wind: Calm
Temperature: 21°F , -6°C
Dew Point: 14°F , -10°C
Humidity: 74%
Barometer: 30.31 inHg , 1026.4 hPa
Clouds: Clear
Visibility: 10 miles , 16 km
2021/01/24 05:35 K4I3 240535Z AUTO 00000KT 10SM CLR M06/M10 A3031 RMK AO2
 
KTZR - Columbus/Bolton, Ohio, USA
Distance from station: S 29mi, 46km
Updated: Sun, 24-Jan-2021 12:35am EST
Clear
Clear
 Wind from E
Wind: E 3 mph , 6 km/h
Temperature: 25°F , -4°C
Dew Point: 12°F , -11°C
Humidity: 59%
Barometer: 30.32 inHg , 1026.8 hPa
Clouds: Clear
Visibility: 10 miles , 16 km
2021/01/24 05:35 KTZR 240535Z AUTO 09003KT 10SM CLR M04/M11 A3032 RMK AO2 T10411109
KUYF - London, Ohio, USA
Distance from station: SW 33mi, 54km
Updated: Sun, 24-Jan-2021 12:35am EST
Overcast
Overcast
 Wind from ESE
Wind: ESE 3 mph , 6 km/h
Temperature: 25°F , -4°C
Dew Point: 14°F , -10°C
Humidity: 63%
Barometer: 30.29 inHg , 1025.7 hPa
Clouds: Overcast
Visibility: 10 miles , 16 km
Cloud details: Overcast 10000 ft
2021/01/24 05:35 KUYF 240535Z AUTO 12003KT 10SM OVC100 M04/M10 A3029 RMK AO2
 
KLCK - Rickenbacker Ang, Ohio, USA
Distance from station: SSE 35mi, 57km
Updated: Sat, 23-Jan-2021 11:55pm EST
Partly cloudy
Partly cloudy
 Wind from ENE
Wind: ENE 5 mph , 7 km/h
Temperature: 25°F , -4°C
Wind Chill: 19°F , -7°C
Dew Point: 14°F , -10°C
Humidity: 63%
Barometer: 30.33 inHg , 1027.1 hPa
Clouds: Partly cloudy
Visibility: 10 miles , 16 km
Cloud details: Partly cloudy 12000 ft
2021/01/24 04:55 KLCK 240455Z AUTO 07004KT 10SM SCT120 M04/M10 A3033 RMK AO2 T10431103
KVTA - Newark, Ohio, USA
Distance from station: ESE 38mi, 61km
Updated: Sat, 23-Jan-2021 11:54pm EST
Overcast
Overcast
 Wind from calm
Wind: Calm
Temperature: 23°F , -5°C
Dew Point: 16°F , -9°C
Humidity: 74%
Barometer: 30.33 inHg , 1027.1 hPa
Clouds: Overcast
Visibility: 10 miles , 16 km
Cloud details: Overcast 11000 ft
2021/01/24 04:54 KVTA 240454Z AUTO 00000KT 10SM OVC110 M05/M09 A3033 RMK AO2 SLP282 T10501094 410061089
 
KEDJ - Bellefontaine, Ohio, USA
Distance from station: W 39mi, 63km
Updated: Sun, 24-Jan-2021 12:15am EST
Clear
Clear
 Wind from SSE
Wind: SSE 5 mph , 7 km/h
Temperature: 23°F , -5°C
Wind Chill: 17°F , -8°C
Dew Point: 14°F , -10°C
Humidity: 68%
Barometer: 30.29 inHg , 1025.7 hPa
Clouds: Clear
Visibility: 10 miles , 16 km
2021/01/24 05:15 KEDJ 240515Z AUTO 16004KT 10SM CLR M05/M10 A3029 RMK AO1
KLHQ - Lancaster, Ohio, USA
Distance from station: SSE 44mi, 71km
Updated: Sat, 23-Jan-2021 11:53pm EST
Clear
Clear
 Wind from calm
Wind: Calm
Temperature: 23°F , -5°C
Dew Point: 16°F , -9°C
Humidity: 74%
Barometer: 30.33 inHg , 1027.1 hPa
Clouds: Clear
Visibility: 10 miles , 16 km
2021/01/24 04:53 KLHQ 240453Z AUTO 00000KT 10SM CLR M05/M09 A3033 RMK AO2 SLP283 T10501089 410061089
 
KMFD - Mansfield, Ohio, USA
Distance from station: NE 46mi, 73km
Updated: Sat, 23-Jan-2021 11:52pm EST
Few Clouds
Few Clouds
 Wind from ESE
Wind: ESE 3 mph , 6 km/h
Temperature: 19°F , -7°C
Dew Point: 12°F , -11°C
Humidity: 73%
Barometer: 30.30 inHg , 1026.1 hPa
Clouds: Few Clouds
Visibility: 10 miles , 16 km
Cloud details: Few Clouds 11000 ft
2021/01/24 04:52 KMFD 240452Z AUTO 11003KT 10SM FEW110 M07/M11 A3030 RMK AO2 SLP280 T10671106 410221100 TSNO
KSGH - Springfield Muni, Ohio, USA
Distance from station: SW 52mi, 84km
Updated: Sat, 23-Jan-2021 11:56pm EST
Clear
Clear
 Wind from E
Wind: E 8 mph , 13 km/h
Temperature: 19°F , -7°C
Wind Chill: 9°F , -13°C
Dew Point: 16°F , -9°C
Humidity: 86%
Barometer: 30.30 inHg , 1026.1 hPa
Clouds: Clear
Visibility: 10 miles , 16 km
2021/01/24 04:56 KSGH 240456Z AUTO 10007KT 10SM CLR M07/M09 A3030 RMK AO2 SLP278 T10671089
 
KI23 - Washington Court, Ohio, USA
Distance from station: SSW 55mi, 88km
Updated: Sun, 24-Jan-2021 12:35am EST
Clear
Clear
 Wind from E
Wind: E 6 mph , 9 km/h
Temperature: 23°F , -5°C
Wind Chill: 16°F , -9°C
Dew Point: 12°F , -11°C
Humidity: 63%
Barometer: 30.29 inHg , 1025.7 hPa
Clouds: Clear
Visibility: 10 miles , 16 km
2021/01/24 05:35 KI23 240535Z AUTO 10005KT 10SM CLR M05/M11 A3029 RMK AO1
KAOH - Lima, Ohio, USA
Distance from station: WNW 56mi, 91km
Updated: Sat, 23-Jan-2021 11:53pm EST
Overcast
Overcast
 Wind from ESE
Wind: ESE 6 mph , 9 km/h
Temperature: 25°F , -4°C
Wind Chill: 18°F , -8°C
Dew Point: 16°F , -9°C
Humidity: 69%
Barometer: 30.29 inHg , 1025.7 hPa
Clouds: Overcast
Visibility: 10 miles , 16 km
Cloud details: Overcast 11000 ft
2021/01/24 04:53 KAOH 240453Z AUTO 12005KT 10SM OVC110 M04/M09 A3029 RMK AO2 SLP272 T10391094 410061111
 
KFDY - Findlay, Ohio, USA
Distance from station: NNW 58mi, 93km
Updated: Sat, 23-Jan-2021 11:53pm EST
Overcast
Overcast
 Wind from SE
Wind: SE 6 mph , 9 km/h
Temperature: 27°F , -3°C
Wind Chill: 20°F , -7°C
Dew Point: 16°F , -9°C
Humidity: 64%
Barometer: 30.31 inHg , 1026.4 hPa
Clouds: Overcast
Visibility: 10 miles , 16 km
Cloud details: Overcast 10000 ft
2021/01/24 04:53 KFDY 240453Z AUTO 14005KT 10SM OVC100 M03/M09 A3031 RMK AO2 SLP272 T10331089 410061117
KFFO - Wright Paterson, Ohio, USA
Distance from station: SW 61mi, 98km
Updated: Wed, 20-Jan-2021 1:56pm EST
NOT Current
Mostly cloudy
Mostly cloudy
 Wind from SW
Wind: SW 13 mph , 20 km/h
Temperature: 32°F , 0°C
Wind Chill: 22°F , -6°C
Dew Point: 18°F , -8°C
Humidity: 55%
Barometer: 30.18 inHg , 1022 hPa
Clouds: Mostly cloudy
Visibility: 9 miles , 14 km
Cloud details: Mostly cloudy 3000 ft
2021/01/20 18:56 KFFO 201856Z 23011KT 9SM BKN030 00/M08 A3018 RMK AO2A SLP231 T00031082
 
KRZT - Chillicothe, Ohio, USA
Distance from station: S 61mi, 98km
Updated: Sun, 24-Jan-2021 12:35am EST
Clear
Clear
 Wind from calm
Wind: Calm
Temperature: 23°F , -5°C
Dew Point: 14°F , -10°C
Humidity: 68%
Barometer: 30.33 inHg , 1027.1 hPa
Clouds: Clear
Visibility: 10 miles , 16 km
2021/01/24 05:35 KRZT 240535Z AUTO 00000KT 10SM CLR M05/M10 A3033 RMK AO2 PWINO
KI19 - Dayton-Jackson, Ohio, USA
Distance from station: SW 65mi, 105km
Updated: Sun, 24-Jan-2021 12:35am EST
Clear
Clear
 Wind from ESE
Wind: ESE 5 mph , 7 km/h
Temperature: 27°F , -3°C
Wind Chill: 21°F , -6°C
Dew Point: 12°F , -11°C
Humidity: 54%
Barometer: 30.30 inHg , 1026.1 hPa
Clouds: Clear
Visibility: 10 miles , 16 km
2021/01/24 05:35 KI19 240535Z AUTO 12004KT 10SM CLR M03/M11 A3030 RMK AO2 T10321115